Time;durP1;ratioP1;P1;durP2;ratioP2;P2;SDS_P1;SDS_P2;PMS_P1;PMS_P2;Temp;Humidity;BMP_temperature;BMP_pressure;BME280_temperature;BME280_humidity;BME280_pressure;Samples;Min_cycle;Max_cycle;Signal;HPM_P1;HPM_P2
2022/06/02 00:02:00;;;;;;;5.17;4.67;;;;;;;9.74;65.95;100838.50;1633057;87;21104;-81
2022/06/02 00:04:37;;;;;;;4.42;4.03;;;;;;;9.77;66.00;100832.88;1626480;86;21130;-82
2022/06/02 00:07:24;;;;;;;5.45;3.90;;;;;;;9.78;66.00;100830.71;1622757;86;21103;-83
2022/06/02 00:10:14;;;;;;;4.20;3.60;;;;;;;9.80;66.05;100831.55;1633351;86;21092;-82
2022/06/02 00:12:49;;;;;;;4.22;3.70;;;;;;;9.79;66.07;100841.46;1613247;87;21130;-83
2022/06/02 00:15:35;;;;;;;5.25;4.03;;;;;;;9.77;66.10;100847.51;1634351;86;21090;-82
2022/06/02 00:18:23;;;;;;;3.83;3.52;;;;;;;9.72;66.12;100854.44;1607215;89;21108;-84
2022/06/02 00:21:01;;;;;;;5.37;4.97;;;;;;;9.69;66.13;100844.99;1618196;87;21146;-83
2022/06/02 00:23:44;;;;;;;5.25;4.75;;;;;;;9.67;66.19;100847.17;1606182;87;21577;-83
2022/06/02 00:26:43;;;;;;;4.95;4.55;;;;;;;9.65;66.23;100853.63;1623476;86;21074;-84
2022/06/02 00:29:54;;;;;;;4.78;4.37;;;;;;;9.65;66.38;100856.22;1604576;87;21134;-84
2022/06/02 00:32:41;;;;;;;6.37;5.87;;;;;;;9.70;66.40;100856.17;1629330;87;21269;-82
2022/06/02 00:35:22;;;;;;;5.47;4.90;;;;;;;9.75;66.41;100854.41;1628515;87;21581;-82
2022/06/02 00:38:02;;;;;;;5.03;4.53;;;;;;;9.77;66.49;100857.84;1616007;87;21079;-83
2022/06/02 00:40:34;;;;;;;6.00;4.70;;;;;;;9.76;66.42;100858.27;1607633;87;21470;-83
2022/06/02 00:43:32;;;;;;;6.10;4.62;;;;;;;9.74;66.48;100854.84;1612775;87;21541;-83
2022/06/02 00:46:27;;;;;;;4.20;3.77;;;;;;;9.75;66.52;100851.83;1615795;87;21098;-83
2022/06/02 00:49:23;;;;;;;4.62;4.22;;;;;;;9.77;66.56;100851.38;1631859;87;21062;-83
2022/06/02 00:52:23;;;;;;;5.55;5.05;;;;;;;9.80;66.66;100848.34;1617112;87;21091;-82
2022/06/02 00:58:34;;;;;;;5.55;4.87;;;;;;;9.86;66.74;100850.02;1624320;87;21138;-82
2022/06/02 01:01:18;;;;;;;5.17;4.78;;;;;;;9.88;66.69;100861.16;1545483;90;21609;-83
2022/06/02 01:03:47;;;;;;;4.53;4.12;;;;;;;9.88;66.71;100854.70;1602141;87;21101;-84
2022/06/02 01:06:44;;;;;;;4.55;3.95;;;;;;;9.84;66.66;100861.65;1608992;89;21507;-82
2022/06/02 01:09:38;;;;;;;6.33;5.72;;;;;;;9.81;66.66;100865.98;1629076;87;21031;-83
2022/06/02 01:12:26;;;;;;;6.62;6.03;;;;;;;9.79;66.74;100862.55;1576226;86;21084;-83
2022/06/02 01:15:22;;;;;;;7.37;6.67;;;;;;;9.72;66.78;100860.46;1616591;86;21063;-83
2022/06/02 01:18:15;;;;;;;6.97;6.37;;;;;;;9.73;66.89;100857.44;1606671;89;21147;-84
2022/06/02 01:21:17;;;;;;;7.47;6.35;;;;;;;9.66;66.79;100855.34;1628297;87;21145;-82
2022/06/02 01:24:17;;;;;;;5.95;5.45;;;;;;;9.63;66.92;100854.08;1628503;86;21126;-83
2022/06/02 01:27:10;;;;;;;6.25;5.72;;;;;;;9.61;66.92;100855.81;1637337;86;21091;-83
2022/06/02 01:30:05;;;;;;;6.72;6.08;;;;;;;9.54;66.81;100855.02;1628707;87;20961;-83
2022/06/02 01:33:16;;;;;;;6.97;5.62;;;;;;;9.42;66.88;100843.48;1608801;87;20998;-84
2022/06/02 01:35:51;;;;;;;7.72;6.00;;;;;;;9.34;66.90;100850.46;1639122;87;21515;-83
2022/06/02 01:38:37;;;;;;;6.15;5.47;;;;;;;9.26;67.03;100858.25;1643084;86;20974;-83
2022/06/02 01:41:18;;;;;;;6.35;5.75;;;;;;;9.23;67.03;100856.12;1602594;87;21384;-83
2022/06/02 01:44:05;;;;;;;7.35;6.33;;;;;;;9.20;67.07;100866.47;1620310;86;20958;-83
2022/06/02 01:46:51;;;;;;;6.97;6.30;;;;;;;9.17;67.09;100876.80;1616626;88;20989;-83
2022/06/02 01:49:46;;;;;;;6.35;5.78;;;;;;;9.11;67.07;100878.13;1606396;87;20962;-85
2022/06/02 01:52:50;;;;;;;6.05;5.45;;;;;;;9.04;67.01;100879.03;1615411;87;20911;-84
2022/06/02 01:55:31;;;;;;;4.15;3.85;;;;;;;8.98;66.96;100868.74;1562285;87;21017;-84
2022/06/02 01:58:31;;;;;;;4.40;3.83;;;;;;;8.87;67.02;100869.66;1603709;88;20973;-84
2022/06/02 02:01:19;;;;;;;4.67;4.22;;;;;;;8.80;67.01;100868.00;1617137;87;20970;-83
2022/06/02 02:04:19;;;;;;;6.58;5.03;;;;;;;8.75;67.09;100876.62;1617542;87;20999;-83
2022/06/02 02:07:00;;;;;;;5.45;4.92;;;;;;;8.67;67.04;100873.22;1554376;88;20997;-84
2022/06/02 02:09:53;;;;;;;5.65;4.97;;;;;;;8.55;67.05;100873.69;1617104;87;20990;-84
2022/06/02 02:13:06;;;;;;;4.60;4.30;;;;;;;8.53;67.10;100874.55;1612151;87;20993;-84
2022/06/02 02:16:01;;;;;;;5.28;4.28;;;;;;;8.47;67.10;100874.57;1602663;87;20973;-83
2022/06/02 02:19:17;;;;;;;4.97;4.55;;;;;;;8.40;67.21;100880.61;1624725;87;21498;-84
2022/06/02 02:21:59;;;;;;;6.01;5.44;;;;;;;8.37;67.15;100885.33;1602946;87;5000889;-83
2022/06/02 02:24:48;;;;;;;5.53;4.78;;;;;;;8.30;66.94;100883.20;1629108;86;20910;-82
2022/06/02 02:30:45;;;;;;;6.47;5.87;;;;;;;8.34;67.42;100885.34;1630703;88;20965;-83
2022/06/02 02:33:41;;;;;;;7.05;6.17;;;;;;;8.35;67.36;100886.20;1672476;85;20918;-86
2022/06/02 02:36:38;;;;;;;9.15;5.72;;;;;;;8.35;67.44;100879.33;1652970;86;20951;-86
2022/06/02 02:39:49;;;;;;;7.55;5.15;;;;;;;8.39;67.56;100868.58;1630410;87;20932;-86
2022/06/02 02:42:36;;;;;;;6.30;5.15;;;;;;;8.42;67.58;100877.16;1669670;85;20922;-83
2022/06/02 02:45:39;;;;;;;5.63;5.13;;;;;;;8.46;67.63;100880.16;1651397;85;20960;-83
2022/06/02 02:48:13;;;;;;;5.80;5.30;;;;;;;8.50;67.65;100875.42;1652102;84;21517;-83
2022/06/02 02:50:51;;;;;;;5.92;4.78;;;;;;;8.54;67.66;100884.86;1647441;85;20926;-84
2022/06/02 02:53:24;;;;;;;6.40;5.37;;;;;;;8.55;67.66;100881.84;1644865;85;20950;-84
2022/06/02 02:56:05;;;;;;;6.35;5.85;;;;;;;8.54;67.74;100880.98;1617998;86;20967;-83
2022/06/02 02:59:01;;;;;;;5.62;5.12;;;;;;;8.57;67.71;100884.84;1659952;85;20865;-86
2022/06/02 03:01:58;;;;;;;5.87;5.37;;;;;;;8.58;67.77;100885.70;1685141;84;20919;-83
2022/06/02 03:05:01;;;;;;;6.40;5.90;;;;;;;8.58;67.79;100890.42;1672070;85;21518;-85
2022/06/02 03:07:30;;;;;;;6.15;5.58;;;;;;;8.59;67.80;100889.56;1618377;86;21553;-83
2022/06/02 03:10:15;;;;;;;6.65;6.05;;;;;;;8.59;67.85;100900.30;1672967;85;21435;-85
2022/06/02 03:12:53;;;;;;;6.87;6.28;;;;;;;8.60;67.92;100904.17;1652363;85;21539;-86
2022/06/02 03:15:34;;;;;;;7.08;6.35;;;;;;;8.63;67.94;100911.89;1593619;86;21480;-85
2022/06/02 03:18:32;;;;;;;8.83;6.15;;;;;;;8.66;68.04;100916.18;1644127;85;21396;-86
2022/06/02 03:21:09;;;;;;;6.05;5.53;;;;;;;8.71;68.05;100929.91;1609583;88;21422;-86
2022/06/02 03:23:53;;;;;;;7.45;6.75;;;;;;;8.77;68.18;100927.75;1664915;85;21492;-86
2022/06/02 03:26:27;;;;;;;6.58;6.08;;;;;;;8.86;68.18;100925.10;1651068;85;21177;-83
2022/06/02 03:29:08;;;;;;;6.25;5.70;;;;;;;8.91;68.16;100927.23;1660639;86;21669;-83
2022/06/02 03:31:48;;;;;;;6.87;6.28;;;;;;;8.95;68.18;100926.36;1648503;85;21614;-83
2022/06/02 03:34:46;;;;;;;7.05;6.40;;;;;;;9.00;68.22;100923.75;1636273;84;21122;-83
2022/06/02 03:37:43;;;;;;;8.20;6.30;;;;;;;9.06;68.30;100912.98;1660894;85;21560;-84
2022/06/02 03:40:51;;;;;;;7.03;6.45;;;;;;;9.12;68.34;100924.55;1640932;84;21543;-85
2022/06/02 03:43:30;;;;;;;6.37;5.40;;;;;;;9.20;68.44;100929.67;1666714;84;22281;-84
2022/06/02 03:46:07;;;;;;;6.47;5.92;;;;;;;9.26;68.42;100926.63;1671021;84;21070;-84
2022/06/02 03:48:45;;;;;;;6.40;5.90;;;;;;;9.34;68.47;100924.44;1665040;84;22250;-84
2022/06/02 03:51:19;;;;;;;7.15;5.72;;;;;;;9.40;68.53;100925.66;1650137;84;21578;-85
2022/06/02 03:54:23;;;;;;;6.80;6.20;;;;;;;9.44;68.59;100943.70;1647846;86;21068;-83
2022/06/02 03:57:18;;;;;;;6.80;6.05;;;;;;;9.53;68.56;100950.53;1658470;85;21590;-84
2022/06/02 04:00:03;;;;;;;6.62;6.10;;;;;;;9.59;68.61;100958.24;1668923;84;21092;-84
2022/06/02 04:02:34;;;;;;;7.60;6.42;;;;;;;9.67;68.68;100955.61;1660973;83;21491;-82
2022/06/02 04:05:40;;;;;;;6.40;5.75;;;;;;;9.74;68.69;100951.69;1648529;84;21047;-86
2022/06/02 04:08:47;;;;;;;6.90;5.90;;;;;;;9.78;68.68;100952.09;1661010;84;21462;-84
2022/06/02 04:14:34;;;;;;;6.95;6.08;;;;;;;9.92;68.85;100955.83;1661516;84;21546;-83
2022/06/02 04:17:32;;;;;;;6.33;5.72;;;;;;;10.05;68.93;100961.32;1616336;84;21066;-82
2022/06/02 04:23:17;;;;;;;6.87;6.17;;;;;;;10.19;68.87;100965.08;1659106;84;22414;-83
2022/06/02 04:26:13;;;;;;;7.50;5.40;;;;;;;10.24;68.95;100977.13;1665137;84;21070;-83
2022/06/02 04:28:51;;;;;;;;;;;;;;;10.31;68.96;100980.95;1671025;84;22256;-81
2022/06/02 04:31:32;;;;;;;5.75;5.20;;;;;;;10.35;69.47;100986.52;1650686;84;20202;-83
2022/06/02 04:34:20;;;;;;;6.00;5.40;;;;;;;10.42;69.10;100994.17;1646019;84;21070;-82
2022/06/02 04:37:06;;;;;;;6.35;5.78;;;;;;;10.49;69.14;101006.60;1646084;85;21107;-83
2022/06/02 04:40:01;;;;;;;6.17;5.62;;;;;;;10.53;69.16;101003.98;1604043;88;21092;-83
2022/06/02 04:42:53;;;;;;;5.55;5.10;;;;;;;10.60;69.18;101011.23;1603691;86;21022;-84
2022/06/02 04:45:51;;;;;;;5.60;5.08;;;;;;;10.67;69.25;101009.45;1567693;89;21564;-79
2022/06/02 04:48:43;;;;;;;5.90;5.40;;;;;;;10.74;69.26;101017.14;1658107;84;20995;-79
2022/06/02 04:51:33;;;;;;;5.97;5.35;;;;;;;10.86;69.30;101019.59;1605209;86;21144;-79
2022/06/02 04:54:17;;;;;;;5.55;5.05;;;;;;;10.95;69.36;101021.20;1614602;86;21000;-79
2022/06/02 04:57:13;;;;;;;4.90;4.50;;;;;;;11.07;69.41;101033.14;1642714;85;21484;-79
2022/06/02 05:00:09;;;;;;;5.30;4.78;;;;;;;11.16;69.42;101024.84;1613526;87;20934;-79
2022/06/02 05:02:52;;;;;;;5.65;5.15;;;;;;;11.25;69.44;101026.02;1608531;87;20879;-79
2022/06/02 05:05:44;;;;;;;6.20;5.65;;;;;;;11.37;69.45;101024.16;1615605;87;20949;-79
2022/06/02 05:08:45;;;;;;;6.78;5.95;;;;;;;11.46;69.48;101027.45;1648244;84;20976;-79
2022/06/02 05:11:33;;;;;;;5.95;5.25;;;;;;;11.59;69.52;101035.92;1660388;84;20939;-79
2022/06/02 05:14:46;;;;;;;5.78;5.20;;;;;;;11.70;69.51;101036.64;1656733;86;20895;-79
2022/06/02 05:17:49;;;;;;;6.05;5.15;;;;;;;11.83;69.56;101038.66;1636840;85;339356;-79
2022/06/02 05:20:39;;;;;;;5.12;4.67;;;;;;;11.92;69.59;101031.60;1641074;85;20939;-79
2022/06/02 05:23:32;;;;;;;6.03;5.42;;;;;;;12.01;69.47;101024.54;1562481;85;38430;-79
2022/06/02 05:26:19;;;;;;;4.92;4.45;;;;;;;12.05;69.55;101030.09;1639381;85;20946;-80
2022/06/02 05:29:24;;;;;;;4.70;4.40;;;;;;;12.10;69.59;101037.36;1622096;87;20978;-80
2022/06/02 05:32:25;;;;;;;4.40;4.08;;;;;;;12.17;69.63;101032.05;1623054;87;21219;-80
2022/06/02 05:34:57;;;;;;;4.58;4.17;;;;;;;12.23;69.62;101031.96;1657332;84;20894;-80
2022/06/02 05:37:44;;;;;;;4.60;4.20;;;;;;;12.27;69.63;101026.28;1650450;84;20993;-80
2022/06/02 05:40:38;;;;;;;4.42;4.12;;;;;;;12.51;70.06;101025.84;1616351;86;21085;-80
2022/06/02 05:43:25;;;;;;;5.85;4.60;;;;;;;13.55;70.46;101035.50;1623045;86;21097;-80
2022/06/02 05:46:13;;;;;;;6.08;4.20;;;;;;;14.74;70.28;101039.14;1620555;87;21104;-80
2022/06/02 05:49:11;;;;;;;4.25;3.92;;;;;;;15.79;70.41;101036.97;1578468;87;21203;-80
2022/06/02 05:52:07;;;;;;;3.77;3.47;;;;;;;16.98;70.48;101045.20;1624363;87;21114;-81
2022/06/02 05:55:12;;;;;;;4.60;3.50;;;;;;;18.09;70.15;101050.11;1622791;85;21072;-80
2022/06/02 05:58:06;;;;;;;3.08;2.70;;;;;;;18.88;69.60;101050.70;1626796;87;20951;-80
2022/06/02 06:00:58;;;;;;;2.60;2.40;;;;;;;19.53;69.64;101058.71;1618854;86;20966;-80
2022/06/02 06:03:35;;;;;;;2.47;2.27;;;;;;;20.15;69.53;101064.06;1605748;88;21141;-80
2022/06/02 06:06:28;;;;;;;3.52;2.70;;;;;;;20.76;69.37;101061.02;1535325;91;21220;-81
2022/06/02 06:09:05;;;;;;;2.80;2.60;;;;;;;21.19;69.15;101064.88;1574803;89;21126;-81
2022/06/02 06:11:49;;;;;;;3.15;2.92;;;;;;;21.51;68.91;101063.16;1584072;89;21425;-81
2022/06/02 06:14:33;;;;;;;4.10;2.60;;;;;;;21.93;68.80;101069.59;1600098;88;21484;-80
2022/06/02 06:17:41;;;;;;;3.50;2.58;;;;;;;22.25;68.26;101069.98;1595922;87;20968;-81
2022/06/02 06:20:36;;;;;;;2.70;2.50;;;;;;;22.48;68.38;101071.73;1617633;87;21586;-82
2022/06/02 06:23:46;;;;;;;2.75;2.50;;;;;;;22.82;68.06;101078.07;1625818;87;21001;-81
2022/06/02 06:26:40;;;;;;;2.30;2.10;;;;;;;22.97;67.80;101071.00;1593124;87;21046;-81
2022/06/02 06:29:46;;;;;;;2.55;2.35;;;;;;;22.98;67.17;101055.55;1540294;91;21061;-80
2022/06/02 06:32:21;;;;;;;4.80;1.95;;;;;;;23.08;66.53;101077.80;1524571;92;21025;-81
2022/06/02 06:35:08;;;;;;;1.90;1.80;;;;;;;22.93;66.41;101080.88;1521331;92;21065;-81
2022/06/02 06:38:04;;;;;;;1.90;1.80;;;;;;;22.81;65.97;101084.75;1513095;93;21140;-82
2022/06/02 06:40:48;;;;;;;2.65;2.02;;;;;;;22.87;65.81;101086.56;1524516;93;21207;-81
2022/06/02 06:43:37;;;;;;;1.55;1.45;;;;;;;23.03;65.46;101092.58;1533605;89;21055;-81
2022/06/02 06:46:46;;;;;;;1.98;1.70;;;;;;;22.69;64.66;101100.32;1595603;87;21180;-81
2022/06/02 06:49:42;;;;;;;1.60;1.50;;;;;;;22.47;64.20;101093.28;1592086;87;21103;-80
2022/06/02 06:52:58;;;;;;;1.67;1.55;;;;;;;22.31;63.89;101094.66;1575796;89;21107;-80
2022/06/02 06:56:18;;;;;;;1.57;1.45;;;;;;;22.37;63.89;101093.43;1543053;91;21117;-80
2022/06/02 06:59:01;;;;;;;1.75;1.60;;;;;;;22.51;63.44;101097.44;1558218;90;21137;-79
2022/06/02 07:01:47;;;;;;;2.35;1.55;;;;;;;22.66;62.89;101111.05;1601612;87;21220;-80
2022/06/02 07:04:46;;;;;;;1.57;1.47;;;;;;;22.62;62.45;101101.63;1604572;86;21088;-80
2022/06/02 07:07:18;;;;;;;2.30;2.17;;;;;;;22.63;62.05;101104.64;1628916;85;21095;-81
2022/06/02 07:10:01;;;;;;;6.15;5.85;;;;;;;22.62;61.82;101101.63;1651037;85;21085;-81
2022/06/02 07:12:51;;;;;;;1.50;1.40;;;;;;;22.54;61.40;101101.69;1635204;85;21080;-81
2022/06/02 07:16:02;;;;;;;1.72;1.60;;;;;;;22.55;61.25;101102.91;1633282;85;21140;-81
2022/06/02 07:18:58;;;;;;;1.67;1.57;;;;;;;22.41;60.70;101109.45;1610536;86;21088;-80
2022/06/02 07:21:36;;;;;;;3.37;1.27;;;;;;;22.06;60.58;101120.22;1643805;85;21176;-81
2022/06/02 07:24:10;;;;;;;1.80;1.70;;;;;;;21.97;60.42;101114.58;1635764;85;21136;-81
2022/06/02 07:27:01;;;;;;;2.08;1.57;;;;;;;22.00;59.87;101109.14;1630996;85;21465;-81
2022/06/02 07:29:58;;;;;;;3.02;1.50;;;;;;;21.96;59.72;101107.61;1646802;85;21668;-81
2022/06/02 07:33:11;;;;;;;1.52;1.20;;;;;;;22.01;59.69;101115.67;1643696;85;21121;-81
2022/06/02 07:36:12;;;;;;;1.60;1.45;;;;;;;22.07;59.21;101114.48;1649631;85;21073;-80
2022/06/02 07:39:10;;;;;;;3.08;1.42;;;;;;;22.10;58.93;101108.58;1645627;85;21421;-80
2022/06/02 07:42:00;;;;;;;1.30;1.20;;;;;;;22.31;58.60;101118.37;1636344;85;21013;-80
2022/06/02 07:44:52;;;;;;;2.37;1.30;;;;;;;22.37;58.17;101108.77;1635860;85;21101;-80
2022/06/02 07:47:49;;;;;;;1.95;1.20;;;;;;;22.23;57.89;101116.64;1649171;85;21128;-80
2022/06/02 07:50:27;;;;;;;4.50;1.05;;;;;;;22.25;57.43;101121.36;1637311;85;21149;-80
2022/06/02 07:53:11;;;;;;;1.30;1.12;;;;;;;22.10;57.29;101131.44;1642036;85;21117;-80
2022/06/02 07:55:50;;;;;;;1.27;1.17;;;;;;;21.97;57.03;101120.69;1624772;85;21113;-80
2022/06/02 07:58:30;;;;;;;1.45;1.10;;;;;;;21.85;56.82;101129.73;1648475;85;21057;-78
2022/06/02 08:01:19;;;;;;;1.52;1.20;;;;;;;21.71;56.63;101123.93;1607623;87;21166;-79
2022/06/02 08:04:27;;;;;;;0.98;0.90;;;;;;;21.62;56.21;101127.05;1580731;88;21094;-80
2022/06/02 08:07:26;;;;;;;1.10;0.90;;;;;;;21.58;56.00;101131.63;1619775;87;21080;-79
2022/06/02 08:10:15;;;;;;;1.07;1.07;;;;;;;21.51;55.81;101134.20;1648197;85;20926;-79
2022/06/02 08:13:22;;;;;;;1.07;0.95;;;;;;;21.44;55.50;101139.41;1649916;84;21383;-80
2022/06/02 08:15:57;;;;;;;1.30;1.20;;;;;;;21.17;55.23;101142.16;1655986;84;21025;-80
2022/06/02 08:18:39;;;;;;;1.67;1.02;;;;;;;20.82;55.09;101150.90;1658927;84;21529;-79
2022/06/02 08:21:29;;;;;;;0.90;0.90;;;;;;;20.76;55.20;101142.50;1648444;85;21036;-80
2022/06/02 08:24:24;;;;;;;1.07;0.90;;;;;;;20.78;54.85;101143.27;1607542;87;21087;-80
2022/06/02 08:27:13;;;;;;;0.93;0.93;;;;;;;20.91;54.72;101148.27;1596086;87;21743;-80
2022/06/02 08:30:10;;;;;;;1.15;1.07;;;;;;;21.10;54.45;101148.19;1607110;87;21573;-77
2022/06/02 08:33:05;;;;;;;1.17;0.90;;;;;;;21.30;54.26;101153.78;1604155;87;21082;-77
2022/06/02 08:36:08;;;;;;;3.00;1.00;;;;;;;21.56;54.24;101155.02;1606890;87;21412;-77
2022/06/02 08:38:55;;;;;;;2.17;1.10;;;;;;;21.54;53.77;101157.73;1604265;87;21162;-77
2022/06/02 08:42:01;;;;;;;0.88;0.88;;;;;;;21.49;53.68;101163.70;1612825;87;21628;-77
2022/06/02 08:44:59;;;;;;;1.77;0.80;;;;;;;21.55;53.33;101158.11;1605776;87;21140;-77
2022/06/02 08:47:42;;;;;;;2.35;0.70;;;;;;;21.50;53.22;101164.08;1604456;87;21328;-77
2022/06/02 08:50:53;;;;;;;0.95;0.70;;;;;;;21.71;53.22;101173.48;1612831;87;21104;-77
2022/06/02 08:53:28;;;;;;;1.10;0.98;;;;;;;21.76;53.00;101181.12;1600991;87;21565;-78
2022/06/02 08:56:23;;;;;;;2.52;0.80;;;;;;;21.60;52.87;101179.77;1559384;87;21090;-78
2022/06/02 08:59:04;;;;;;;0.90;0.90;;;;;;;21.51;52.68;101182.03;1608386;87;21108;-77
2022/06/02 09:02:21;;;;;;;1.37;1.20;;;;;;;21.27;52.34;101187.67;1595906;87;21070;-77
2022/06/02 09:05:22;;;;;;;1.12;0.82;;;;;;;20.96;52.22;101184.39;1602253;87;21442;-77
2022/06/02 09:08:24;;;;;;;0.78;0.70;;;;;;;20.86;52.47;101188.86;1606142;87;20980;-77
2022/06/02 09:11:29;;;;;;;7.05;1.20;;;;;;;21.01;52.37;101188.95;1613751;87;20942;-77
2022/06/02 09:14:10;;;;;;;2.85;1.05;;;;;;;20.93;51.61;101192.89;1602969;87;20977;-77
2022/06/02 09:17:06;;;;;;;1.15;0.90;;;;;;;20.63;51.72;101199.22;1589043;87;21026;-77
2022/06/02 09:20:13;;;;;;;2.10;0.70;;;;;;;20.61;51.80;101195.34;1607711;87;20976;-77
2022/06/02 09:23:18;;;;;;;0.80;0.80;;;;;;;20.64;51.62;101195.20;1570845;89;20986;-77
2022/06/02 09:26:18;;;;;;;1.30;0.80;;;;;;;20.58;51.45;101203.37;1563846;89;21035;-77
2022/06/02 09:29:15;;;;;;;1.85;0.75;;;;;;;20.45;51.36;101207.52;1564255;88;20957;-77
2022/06/02 09:32:24;;;;;;;0.85;0.68;;;;;;;20.43;51.32;101220.72;1607029;87;21255;-77
2022/06/02 09:35:19;;;;;;;2.50;1.15;;;;;;;20.21;51.02;101216.54;1605701;87;20962;-77
2022/06/02 09:38:25;;;;;;;0.80;0.68;;;;;;;19.83;51.00;101221.75;1607112;87;20937;-77
2022/06/02 09:41:09;;;;;;;0.65;0.65;;;;;;;19.61;50.94;101222.34;1609011;87;20991;-77
2022/06/02 09:44:04;;;;;;;1.05;1.02;;;;;;;19.49;50.98;101217.13;1584052;87;21035;-77
2022/06/02 09:47:08;;;;;;;0.70;0.70;;;;;;;19.50;50.99;101219.69;1535892;89;21020;-77
2022/06/02 09:49:55;;;;;;;0.78;0.78;;;;;;;19.47;50.74;101219.81;1598943;87;20926;-77
2022/06/02 09:52:39;;;;;;;;;;;;;;;19.54;50.79;101219.13;1583701;89;20998;-77
2022/06/02 09:55:29;;;;;;;1.12;0.70;;;;;;;19.64;50.15;101229.61;1606295;86;20117;-77
2022/06/02 09:58:22;;;;;;;1.72;1.25;;;;;;;19.53;50.43;101230.53;1602948;86;20930;-76
2022/06/02 10:01:16;;;;;;;0.60;0.60;;;;;;;19.37;50.28;101232.93;1610275;86;20926;-77
2022/06/02 10:04:27;;;;;;;0.62;0.62;;;;;;;19.17;50.23;101234.26;1591238;87;20989;-77
2022/06/02 10:07:16;;;;;;;0.70;0.70;;;;;;;18.93;50.21;101240.05;1596630;86;21488;-77
2022/06/02 10:10:12;;;;;;;0.68;0.60;;;;;;;18.77;50.26;101241.11;1580176;89;20989;-77
2022/06/02 10:13:03;;;;;;;1.07;0.60;;;;;;;18.65;50.14;101239.02;1601350;87;21438;-77
2022/06/02 10:15:42;;;;;;;1.07;0.90;;;;;;;18.54;50.11;101232.00;1575822;89;20963;-77
2022/06/02 10:18:50;;;;;;;0.85;0.78;;;;;;;18.51;50.19;101229.04;1598933;87;20926;-77
2022/06/02 10:21:46;;;;;;;0.95;0.80;;;;;;;18.66;50.28;101229.39;1625550;86;20914;-77
2022/06/02 10:24:44;;;;;;;0.65;0.65;;;;;;;18.85;50.20;101229.02;1597058;87;20955;-77
2022/06/02 10:27:32;;;;;;;1.65;1.00;;;;;;;18.97;50.00;101233.77;1560154;90;21017;-77
2022/06/02 10:30:40;;;;;;;0.88;0.85;;;;;;;18.94;49.95;101228.64;1552419;90;21581;-77
2022/06/02 10:33:19;;;;;;;0.70;0.70;;;;;;;18.93;49.92;101238.73;1556638;90;20966;-77
2022/06/02 10:36:19;;;;;;;0.90;0.90;;;;;;;18.93;49.82;101232.64;1551987;90;21468;-77
2022/06/02 10:39:13;;;;;;;0.78;0.78;;;;;;;18.95;49.87;101236.91;1558611;90;21449;-77
2022/06/02 10:41:47;;;;;;;0.65;0.62;;;;;;;18.96;49.80;101247.78;1560530;90;20992;-77
2022/06/02 10:44:47;;;;;;;1.82;0.80;;;;;;;18.93;49.72;101241.81;1535942;91;20974;-77
2022/06/02 10:47:41;;;;;;;0.75;0.75;;;;;;;18.91;49.74;101255.44;1540115;91;20909;-77
2022/06/02 10:50:45;;;;;;;0.80;0.65;;;;;;;19.04;49.79;101247.02;1545084;91;21480;-77
2022/06/02 10:53:37;;;;;;;1.20;1.12;;;;;;;19.27;49.81;101249.11;1542966;91;20954;-77
2022/06/02 10:56:34;;;;;;;0.72;0.72;;;;;;;19.56;49.63;101250.08;1526228;91;21450;-77
2022/06/02 10:59:45;;;;;;;0.70;0.65;;;;;;;19.65;49.56;101241.81;1574087;88;21455;-77
2022/06/02 11:02:29;;;;;;;0.85;0.60;;;;;;;19.75;49.52;101252.30;1609383;87;21464;-77
2022/06/02 11:05:47;;;;;;;0.78;0.78;;;;;;;19.66;49.27;101252.70;1614097;87;21429;-77
2022/06/02 11:08:34;;;;;;;1.72;0.90;;;;;;;19.66;49.44;101255.78;1602623;87;20965;-77
2022/06/02 11:11:38;;;;;;;1.12;0.80;;;;;;;19.71;49.46;101246.80;1608183;87;20990;-77
2022/06/02 11:14:28;;;;;;;4.92;0.80;;;;;;;19.92;49.51;101233.61;1585906;87;21443;-77
2022/06/02 11:17:33;;;;;;;1.00;0.90;;;;;;;20.16;49.33;101243.01;1606264;87;21803;-77
2022/06/02 11:23:07;;;;;;;0.78;0.70;;;;;;;20.31;48.97;101255.41;1830138;75;23429;-77
2022/06/02 11:25:47;;;;;;;0.70;0.70;;;;;;;20.15;48.94;101245.24;1811988;77;21504;-76
2022/06/02 11:28:53;;;;;;;0.80;0.80;;;;;;;20.06;48.90;101258.79;1812815;77;20959;-77
2022/06/02 11:31:45;;;;;;;1.90;0.78;;;;;;;19.93;48.85;101262.42;1805294;77;26901;-77
2022/06/02 11:34:37;;;;;;;0.72;0.70;;;;;;;19.86;48.83;101258.36;1759273;78;20971;-83
2022/06/02 11:37:20;;;;;;;1.00;0.65;;;;;;;19.87;48.72;101260.53;1806806;77;21380;-83
2022/06/02 11:40:14;;;;;;;1.00;0.90;;;;;;;19.97;48.84;101254.80;1816681;78;21484;-83
2022/06/02 11:43:08;;;;;;;0.93;0.80;;;;;;;20.10;48.70;101264.30;1803943;77;21574;-83
2022/06/02 11:46:00;;;;;;;1.00;0.90;;;;;;;20.10;48.48;101261.20;1808738;78;21500;-83
2022/06/02 11:48:43;;;;;;;1.47;1.17;;;;;;;20.02;48.39;101263.33;1803226;77;21285;-83
2022/06/02 11:51:27;;;;;;;2.30;0.93;;;;;;;20.04;48.44;101263.25;1812715;77;21420;-82
2022/06/02 11:54:27;;;;;;;0.85;0.70;;;;;;;20.08;48.38;101264.83;1810362;77;20954;-83
2022/06/02 11:57:32;;;;;;;1.40;0.90;;;;;;;20.09;48.19;101256.87;1805545;77;21365;-76
2022/06/02 12:00:44;;;;;;;1.22;0.80;;;;;;;20.12;48.04;101251.95;1770634;79;21724;-76
2022/06/02 12:03:16;;;;;;;1.42;0.68;;;;;;;20.04;47.89;101254.92;1775893;78;20940;-76
2022/06/02 12:06:21;;;;;;;1.87;0.70;;;;;;;20.02;47.86;101259.84;1774995;78;21480;-76
2022/06/02 12:08:55;;;;;;;0.70;0.70;;;;;;;19.98;47.70;101251.72;1743452;80;21465;-76
2022/06/02 12:11:33;;;;;;;1.85;0.80;;;;;;;19.89;47.65;101273.13;1776125;78;20886;-76
2022/06/02 12:14:24;;;;;;;1.37;0.80;;;;;;;19.83;47.57;101275.55;1743143;80;20911;-76
2022/06/02 12:16:56;;;;;;;0.90;0.80;;;;;;;19.80;47.44;101271.75;1773706;78;21456;-76
2022/06/02 12:19:46;;;;;;;2.72;0.90;;;;;;;19.77;47.45;101273.20;1782521;78;20873;-76
2022/06/02 12:22:58;;;;;;;1.27;0.88;;;;;;;19.78;47.44;101261.32;1780491;78;21285;-75
2022/06/02 12:25:53;;;;;;;1.90;1.15;;;;;;;19.92;47.38;101275.16;1740471;80;21425;-75
2022/06/02 12:28:38;;;;;;;3.10;0.90;;;;;;;19.90;47.00;101273.05;1769141;78;21333;-75
2022/06/02 12:31:28;;;;;;;1.27;0.82;;;;;;;19.89;47.03;101279.69;1770921;78;20838;-75
2022/06/02 12:34:39;;;;;;;1.42;1.00;;;;;;;19.95;46.86;101279.41;1783188;78;21469;-75
2022/06/02 12:37:57;;;;;;;1.62;0.88;;;;;;;20.13;46.87;101282.08;1788772;78;20921;-76
2022/06/02 12:40:44;;;;;;;4.12;0.90;;;;;;;20.25;46.67;101279.36;1749702;80;21462;-75
2022/06/02 12:43:38;;;;;;;0.80;0.70;;;;;;;20.19;46.64;101275.70;1756611;78;21429;-76
2022/06/02 12:46:28;;;;;;;0.80;0.78;;;;;;;20.14;46.62;101276.36;1723959;80;21444;-76
2022/06/02 12:49:02;;;;;;;1.72;1.00;;;;;;;20.02;46.56;101282.16;1745246;80;21428;-77
2022/06/02 12:51:57;;;;;;;0.62;0.60;;;;;;;19.85;46.48;101285.53;1753319;80;21487;-77
2022/06/02 12:55:09;;;;;;;0.68;0.68;;;;;;;19.78;46.54;101291.50;1782085;79;21423;-76
2022/06/02 12:58:04;;;;;;;0.78;0.72;;;;;;;19.74;46.50;101291.27;1753132;80;20935;-76
2022/06/02 13:01:02;;;;;;;0.85;0.60;;;;;;;19.66;46.45;101290.75;1781414;79;20866;-76
2022/06/02 13:04:10;;;;;;;1.45;1.05;;;;;;;19.73;46.53;101290.02;1756462;80;21340;-76
2022/06/02 13:06:56;;;;;;;2.10;1.15;;;;;;;19.83;46.26;101290.84;1772249;79;21481;-77
2022/06/02 13:09:46;;;;;;;1.52;0.60;;;;;;;19.84;46.25;101286.45;1781217;78;20876;-76
2022/06/02 13:12:32;;;;;;;0.65;0.65;;;;;;;19.90;46.30;101287.49;1776233;78;21550;-76
2022/06/02 13:15:11;;;;;;;1.60;0.70;;;;;;;20.01;46.16;101288.33;1752324;80;20941;-76
2022/06/02 13:17:56;;;;;;;1.05;0.70;;;;;;;19.96;45.94;101295.55;1742799;79;20949;-76
2022/06/02 13:21:08;;;;;;;1.60;0.80;;;;;;;19.87;45.84;101310.39;1735882;81;21044;-76
2022/06/02 13:24:02;;;;;;;1.25;0.72;;;;;;;19.68;45.68;101310.36;1767920;79;21014;-77
2022/06/02 13:26:53;;;;;;;1.72;0.90;;;;;;;19.38;45.98;101335.61;1763804;79;21032;-77
2022/06/02 13:29:58;;;;;;;1.07;0.90;;;;;;;18.77;46.34;101347.23;1745209;80;21136;-76
2022/06/02 13:33:01;;;;;;;1.30;0.80;;;;;;;18.30;46.54;101345.06;1768361;78;21048;-76
2022/06/02 13:35:49;;;;;;;0.80;0.80;;;;;;;18.00;46.74;101340.50;1749834;80;21127;-76
2022/06/02 13:38:30;;;;;;;0.78;0.78;;;;;;;17.77;46.92;101342.59;1746464;80;21009;-76
2022/06/02 13:41:38;;;;;;;5.22;0.68;;;;;;;17.66;47.20;101332.98;1741445;81;21131;-76